To NAV CANADA Home Page Login to a new session Search on AWWS site Feedback and Comments Disclaimer Vers la page française équivalente Tips FAQ What's new on the site To the Forecasts and Observations / NOTAM section To "File a Flight Plan" website Publications and other links Update of the User's profile FIC Telephone Numbers My Weather Data Folder Route Weather Data Regional Weather Data Local Weather Data To the Forecasts and Observations / NOTAM section
Request Generated 04/23/2014 at 14:05:03 UTC . Weather information available at that time is displayed.

METAR/TAF

LLOYDMINSTER/AB    (show WxCam)

METAR CYLL 231300Z 11019G27KT 15SM BKN095 OVC280 06/01 A2947 RMK
AC7CI1 SLP989 DENSITY ALT 2200FT=
SPECI CYLL 231208Z AUTO 10018G25KT 9SM BKN070 OVC079 06/02 A2947 RMK
MAX WND 11020KT AT 1201Z SLP990=
METAR CYLL 231200Z AUTO 11020G26KT 9SM -RA OVC065 06/02 A2947 RMK MAX
WND 11023KT AT 1125Z SLP991=
SPECI CYLL 231111Z AUTO 11020G28KT 9SM -RA BKN065 OVC081 07/02 A2947
RMK MAX WND 11021KT AT 1106Z SLP991 DENSITY ALT 2200FT=
SPECI CYLL 231102Z AUTO 11019G30KT 9SM FEW055 BKN069 OVC084 07/02
A2948 RMK MAX WND 11019KT AT 1101Z SLP992 DENSITY ALT 2200FT=
METAR CYLL 231100Z AUTO 11021G30KT 9SM -RA FEW055 BKN070 OVC084 07/02
A2948 RMK MAX WND 11022KT AT 1050Z SLP992 DENSITY ALT 2200FT=

TAF CYLL 231143Z 2312/2324 11022G32KT P6SM -SHRA OVC060 TEMPO
2313/2317 P6SM NSW OVC090
FM231700 11022G32KT P6SM -RA SCT010 OVC025 TEMPO 2317/2320 5SM RA
BR OVC010
FM232000 11020G30KT 6SM -RA BR SCT006 OVC012 TEMPO 2320/2324 3SM
RA BR OVC006
RMK FCST BASED ON AUTO OBS. NXT FCST BY 231800Z=
Your time UTC time
Weather data provided by Environment Canada and NAV CANADA